createdAt,value
2019-05-10T00:00:16.352Z,0.90
2019-05-10T00:03:04.660Z,0.80
2019-05-10T00:05:52.561Z,1.00
2019-05-10T00:08:40.904Z,1.00
2019-05-10T00:11:33.004Z,1.10
2019-05-10T00:14:22.917Z,0.90
2019-05-10T00:16:55.644Z,1.00
2019-05-10T00:19:26.017Z,1.00
2019-05-10T00:21:56.374Z,0.98
2019-05-10T00:24:26.795Z,0.95
2019-05-10T00:26:57.229Z,1.07
2019-05-10T00:29:27.606Z,0.90
2019-05-10T00:31:58.021Z,0.98
2019-05-10T00:34:28.392Z,0.90
2019-05-10T00:36:58.753Z,1.10
2019-05-10T00:39:29.141Z,0.90
2019-05-10T00:41:59.518Z,0.90
2019-05-10T00:44:30.149Z,1.00
2019-05-10T00:47:00.746Z,1.02
2019-05-10T00:49:31.407Z,1.32
2019-05-10T00:52:02.053Z,1.00
2019-05-10T00:54:32.813Z,1.30
2019-05-10T00:57:03.461Z,1.20
2019-05-10T00:59:34.082Z,1.20
2019-05-10T01:02:04.858Z,1.20
2019-05-10T01:04:35.619Z,1.20
2019-05-10T01:07:06.185Z,1.20
2019-05-10T01:09:36.934Z,1.35
2019-05-10T01:12:07.529Z,1.60
2019-05-10T01:14:38.204Z,1.07
2019-05-10T01:17:08.776Z,1.10
2019-05-10T01:19:39.450Z,1.27
2019-05-10T01:22:09.993Z,1.27
2019-05-10T01:24:40.649Z,1.30
2019-05-10T01:27:11.264Z,1.20
2019-05-10T01:29:42.360Z,1.10
2019-05-10T01:32:12.900Z,1.87
2019-05-10T01:34:43.473Z,1.27
2019-05-10T01:37:14.153Z,1.35
2019-05-10T01:39:44.800Z,1.07
2019-05-10T01:42:15.461Z,1.40
2019-05-10T01:44:46.071Z,1.45
2019-05-10T01:47:16.832Z,1.30
2019-05-10T01:49:47.494Z,1.17
2019-05-10T01:52:18.353Z,1.20
2019-05-10T01:54:48.931Z,1.50
2019-05-10T01:57:19.587Z,1.37
2019-05-10T01:59:50.377Z,1.47
2019-05-10T02:02:21.112Z,1.20
2019-05-10T02:04:51.693Z,1.60
2019-05-10T02:07:22.292Z,1.50
2019-05-10T02:09:52.990Z,1.40
2019-05-10T02:12:23.576Z,1.32
2019-05-10T02:14:54.204Z,1.32
2019-05-10T02:17:25.379Z,1.40
2019-05-10T02:19:55.964Z,1.40
2019-05-10T02:22:26.607Z,1.37
2019-05-10T02:24:57.306Z,1.40
2019-05-10T02:27:27.905Z,1.45
2019-05-10T02:29:58.461Z,1.55
2019-05-10T02:32:29.018Z,1.30
2019-05-10T02:34:59.648Z,1.30
2019-05-10T02:37:30.325Z,1.30
2019-05-10T02:40:01.021Z,1.70
2019-05-10T02:42:31.790Z,1.80
2019-05-10T02:45:02.559Z,2.05
2019-05-10T02:47:33.362Z,2.27
2019-05-10T02:50:04.121Z,1.65
2019-05-10T02:52:34.928Z,2.00
2019-05-10T02:55:06.122Z,1.70
2019-05-10T02:57:37.880Z,1.90
2019-05-10T03:00:09.079Z,2.35
2019-05-10T03:02:40.202Z,2.80
2019-05-10T03:05:10.971Z,2.20
2019-05-10T03:07:41.644Z,2.60
2019-05-10T03:10:13.280Z,2.25
2019-05-10T03:12:43.958Z,2.40
2019-05-10T03:15:14.856Z,2.10
2019-05-10T03:17:46.874Z,2.20
2019-05-10T03:20:17.577Z,1.92
2019-05-10T03:22:48.946Z,3.02
2019-05-10T03:25:19.797Z,2.42
2019-05-10T03:27:50.738Z,2.30
2019-05-10T03:30:21.497Z,2.40
2019-05-10T03:32:52.365Z,3.10
2019-05-10T03:35:23.329Z,2.15
2019-05-10T03:37:54.217Z,2.55
2019-05-10T03:40:25.139Z,2.12
2019-05-10T03:42:55.918Z,2.35
2019-05-10T03:45:26.945Z,1.80
2019-05-10T03:47:57.750Z,3.25
2019-05-10T03:50:28.518Z,2.92
2019-05-10T03:52:59.240Z,1.90
2019-05-10T03:55:29.984Z,2.15
2019-05-10T03:58:00.693Z,2.42
2019-05-10T04:00:31.129Z,2.25
2019-05-10T04:03:01.517Z,2.30
2019-05-10T04:05:31.974Z,2.30
2019-05-10T04:08:02.403Z,2.45
2019-05-10T04:10:32.850Z,1.85
2019-05-10T04:13:03.240Z,2.15
2019-05-10T04:15:33.632Z,2.40
2019-05-10T04:18:04.085Z,2.35
2019-05-10T04:20:34.606Z,1.67
2019-05-10T04:23:05.061Z,1.92
2019-05-10T04:25:35.431Z,2.40
2019-05-10T04:28:05.801Z,2.98
2019-05-10T04:30:36.406Z,1.65
2019-05-10T04:33:06.856Z,1.70
2019-05-10T04:35:37.263Z,2.10
2019-05-10T04:38:07.981Z,1.80
2019-05-10T04:40:38.415Z,1.90
2019-05-10T04:43:08.769Z,1.70
2019-05-10T04:45:39.196Z,1.70
2019-05-10T04:48:09.646Z,2.30
2019-05-10T04:50:40.038Z,1.90
2019-05-10T04:53:10.401Z,2.02
2019-05-10T04:55:40.867Z,1.50
2019-05-10T04:58:11.478Z,1.70
2019-05-10T05:00:42.083Z,2.50
2019-05-10T05:03:12.635Z,1.70
2019-05-10T05:05:43.447Z,1.70
2019-05-10T05:08:14.103Z,1.40
2019-05-10T05:10:44.796Z,2.17
2019-05-10T05:13:15.351Z,1.90
2019-05-10T05:15:46.021Z,1.82
2019-05-10T05:18:16.838Z,1.75
2019-05-10T05:20:47.635Z,2.05
2019-05-10T05:23:18.210Z,1.80
2019-05-10T05:25:48.859Z,1.80
2019-05-10T05:28:23.185Z,1.80
2019-05-10T05:30:51.931Z,1.80
2019-05-10T05:33:22.671Z,1.80
2019-05-10T05:35:53.594Z,1.80
2019-05-10T05:38:24.423Z,1.92
2019-05-10T05:40:55.271Z,2.30
2019-05-10T05:43:25.978Z,1.70
2019-05-10T05:45:56.661Z,1.40
2019-05-10T05:48:39.519Z,2.10
2019-05-10T05:50:59.941Z,1.72
2019-05-10T05:53:35.935Z,1.60
2019-05-10T05:56:12.012Z,1.90
2019-05-10T05:58:38.009Z,1.37
2019-05-10T06:01:09.182Z,1.32
2019-05-10T06:03:39.914Z,1.30
2019-05-10T06:06:21.587Z,1.77
2019-05-10T06:08:43.179Z,2.05
2019-05-10T06:11:13.913Z,1.40
2019-05-10T06:13:44.796Z,1.80
2019-05-10T06:16:15.466Z,1.60
2019-05-10T06:18:47.386Z,1.98
2019-05-10T06:21:25.188Z,1.72
2019-05-10T06:23:50.824Z,1.50
2019-05-10T06:26:28.123Z,1.62
2019-05-10T06:29:01.439Z,1.40
2019-05-10T06:31:26.846Z,2.05
2019-05-10T06:33:57.614Z,1.40
2019-05-10T06:36:28.235Z,1.67
2019-05-10T06:38:58.975Z,1.40
2019-05-10T06:41:32.514Z,1.50
2019-05-10T06:44:02.114Z,1.50
2019-05-10T06:47:08.113Z,1.95
2019-05-10T06:49:41.749Z,1.67
2019-05-10T06:52:09.364Z,1.65
2019-05-10T06:54:40.066Z,1.70
2019-05-10T06:57:11.281Z,1.20
2019-05-10T06:59:43.050Z,1.40
2019-05-10T07:02:13.723Z,1.50
2019-05-10T07:04:44.362Z,1.45
2019-05-10T07:07:22.073Z,1.55
2019-05-10T07:10:04.198Z,1.50
2019-05-10T07:12:19.646Z,2.15
2019-05-10T07:14:50.334Z,1.60
2019-05-10T07:17:21.046Z,1.77
2019-05-10T07:19:54.770Z,1.70
2019-05-10T07:22:26.920Z,1.62
2019-05-10T07:24:57.184Z,2.00
2019-05-10T07:27:28.638Z,1.90
2019-05-10T07:29:59.220Z,1.65
2019-05-10T07:32:29.929Z,1.67
2019-05-10T07:35:01.171Z,1.85
2019-05-10T07:37:31.874Z,1.62
2019-05-10T07:40:03.556Z,1.82
2019-05-10T07:42:34.427Z,1.90
2019-05-10T07:45:05.511Z,1.95
2019-05-10T07:47:36.210Z,2.05
2019-05-10T07:50:09.689Z,2.03
2019-05-10T07:52:43.380Z,2.07
2019-05-10T07:55:11.515Z,1.70
2019-05-10T07:57:42.212Z,1.80
2019-05-10T08:00:13.221Z,2.90
2019-05-10T08:02:44.464Z,1.77
2019-05-10T08:05:18.281Z,1.73
2019-05-10T08:07:49.476Z,1.50
2019-05-10T08:10:21.416Z,1.40
2019-05-10T08:12:52.263Z,1.70
2019-05-10T08:15:24.686Z,1.60
2019-05-10T08:17:55.106Z,1.87
2019-05-10T08:20:38.234Z,1.50
2019-05-10T08:22:58.077Z,1.50
2019-05-10T08:25:29.467Z,1.70
2019-05-10T08:28:05.022Z,1.60
2019-05-10T08:30:58.476Z,1.53
2019-05-10T08:33:18.400Z,1.60
2019-05-10T08:35:54.561Z,1.40
2019-05-10T08:38:21.978Z,1.70
2019-05-10T08:40:52.963Z,1.37
2019-05-10T08:43:24.640Z,1.43
2019-05-10T08:45:57.914Z,1.17
2019-05-10T08:48:27.902Z,1.57
2019-05-10T08:51:05.545Z,1.20
2019-05-10T08:53:32.851Z,1.70
2019-05-10T08:56:07.620Z,1.20
2019-05-10T08:58:37.291Z,1.70
2019-05-10T09:01:20.048Z,1.37
2019-05-10T09:03:41.970Z,1.40
2019-05-10T09:06:16.780Z,1.30
2019-05-10T09:08:45.139Z,1.10
2019-05-10T09:11:16.440Z,1.20
2019-05-10T09:13:47.281Z,1.27
2019-05-10T09:16:17.900Z,1.20
2019-05-10T09:18:51.133Z,1.47
2019-05-10T09:21:22.349Z,1.20
2019-05-10T09:24:01.822Z,1.00
2019-05-10T09:26:25.468Z,0.80
2019-05-10T09:28:57.745Z,1.03
2019-05-10T09:31:28.596Z,1.00
2019-05-10T09:33:59.273Z,0.97
2019-05-10T09:36:35.858Z,1.03
2019-05-10T09:39:03.351Z,1.00
2019-05-10T09:41:38.192Z,0.90
2019-05-10T09:44:06.533Z,1.00
2019-05-10T09:46:37.170Z,0.70
2019-05-10T09:49:15.602Z,1.07
2019-05-10T09:51:42.102Z,1.10
2019-05-10T09:54:12.308Z,1.30
2019-05-10T09:56:44.622Z,1.13
2019-05-10T09:59:15.222Z,1.10
2019-05-10T10:01:45.809Z,1.10
2019-05-10T10:04:17.839Z,1.27
2019-05-10T10:06:52.657Z,0.90
2019-05-10T10:09:24.669Z,1.00
2019-05-10T10:11:57.637Z,1.20
2019-05-10T10:14:28.138Z,1.27
2019-05-10T10:17:02.733Z,1.10
2019-05-10T10:19:30.117Z,1.63
2019-05-10T10:22:00.487Z,1.20
2019-05-10T10:24:31.157Z,1.37
2019-05-10T10:27:01.566Z,1.17
2019-05-10T10:29:34.012Z,1.10
2019-05-10T10:32:04.054Z,1.10
2019-05-10T10:34:38.829Z,1.00
2019-05-10T10:37:07.849Z,1.00
2019-05-10T10:39:38.455Z,1.43
2019-05-10T10:42:13.131Z,1.20
2019-05-10T10:44:40.961Z,0.90
2019-05-10T10:47:11.358Z,1.00
2019-05-10T10:49:41.798Z,1.00
2019-05-10T10:52:13.592Z,1.40
2019-05-10T10:54:44.094Z,1.13
2019-05-10T10:57:14.676Z,1.10
2019-05-10T10:59:47.484Z,1.20
2019-05-10T11:02:32.124Z,1.00
2019-05-10T11:04:49.918Z,1.17
2019-05-10T11:07:20.575Z,0.90
2019-05-10T11:09:53.687Z,1.30
2019-05-10T11:12:24.150Z,1.10
2019-05-10T11:14:54.862Z,1.00
2019-05-10T11:17:25.516Z,1.20
2019-05-10T11:19:56.104Z,1.17
2019-05-10T11:22:27.509Z,1.07
2019-05-10T11:25:03.025Z,1.37
2019-05-10T11:27:30.999Z,1.07
2019-05-10T11:30:01.645Z,1.27
2019-05-10T11:32:32.275Z,1.23
2019-05-10T11:35:05.393Z,1.10
2019-05-10T11:37:36.336Z,1.00
2019-05-10T11:40:07.155Z,0.93
2019-05-10T11:42:42.842Z,0.90
2019-05-10T11:45:11.077Z,0.77
2019-05-10T11:47:41.830Z,0.90
2019-05-10T11:50:27.813Z,0.90
2019-05-10T11:52:45.160Z,0.90
2019-05-10T11:55:15.868Z,1.10
2019-05-10T11:57:56.682Z,0.97
2019-05-10T12:00:28.456Z,1.00
2019-05-10T12:03:07.013Z,1.00
2019-05-10T12:05:26.782Z,0.80
2019-05-10T12:07:57.601Z,1.10
2019-05-10T12:10:28.427Z,1.20
2019-05-10T12:13:08.502Z,1.37
2019-05-10T12:15:31.937Z,1.20
2019-05-10T12:18:04.696Z,0.90
2019-05-10T12:20:51.038Z,1.10
2019-05-10T12:23:13.407Z,0.80
2019-05-10T12:25:53.097Z,1.00
2019-05-10T12:28:15.363Z,1.20
2019-05-10T12:30:44.360Z,1.40
2019-05-10T12:33:24.128Z,1.17
2019-05-10T12:35:47.623Z,0.90
2019-05-10T12:38:18.081Z,1.00
2019-05-10T12:40:48.491Z,1.00
2019-05-10T12:43:21.017Z,0.90
2019-05-10T12:45:51.807Z,1.10
2019-05-10T12:48:23.631Z,1.00
2019-05-10T12:50:58.072Z,1.00
2019-05-10T12:53:26.538Z,0.87
2019-05-10T12:55:57.223Z,0.73
2019-05-10T12:58:27.846Z,2.20
2019-05-10T13:00:59.111Z,1.00
2019-05-10T13:03:31.720Z,1.00
2019-05-10T13:06:02.324Z,0.77
2019-05-10T13:08:33.002Z,0.70
2019-05-10T13:11:03.570Z,1.00
2019-05-10T13:13:34.205Z,1.10
2019-05-10T13:16:09.869Z,1.20
2019-05-10T13:18:52.907Z,1.50
2019-05-10T13:21:19.495Z,1.50
2019-05-10T13:23:41.871Z,1.80
2019-05-10T13:26:12.547Z,1.40
2019-05-10T13:28:43.266Z,1.70
2019-05-10T13:31:15.102Z,1.53
2019-05-10T13:33:45.948Z,1.30
2019-05-10T13:36:16.615Z,2.10
2019-05-10T13:38:49.249Z,1.47
2019-05-10T13:41:23.950Z,1.40
2019-05-10T13:43:51.461Z,1.27
2019-05-10T13:46:21.946Z,1.20
2019-05-10T13:48:52.435Z,1.50
2019-05-10T13:51:23.059Z,1.37
2019-05-10T13:53:58.417Z,1.30
2019-05-10T13:56:25.822Z,1.47
2019-05-10T13:58:56.207Z,1.40
2019-05-10T14:01:26.752Z,1.53
2019-05-10T14:04:01.440Z,1.40
2019-05-10T14:06:29.205Z,1.27
2019-05-10T14:08:59.652Z,1.00
2019-05-10T14:11:34.244Z,1.10
2019-05-10T14:14:02.605Z,1.13
2019-05-10T14:16:33.917Z,1.13
2019-05-10T14:19:04.692Z,1.40
2019-05-10T14:21:35.379Z,1.43
2019-05-10T14:24:08.954Z,1.30
2019-05-10T14:26:38.417Z,0.97
2019-05-10T14:29:11.158Z,0.80
2019-05-10T14:31:40.939Z,0.70
2019-05-10T14:34:15.109Z,0.80
2019-05-10T14:36:43.898Z,0.70
2019-05-10T14:39:14.306Z,0.70
2019-05-10T14:41:45.433Z,0.80
2019-05-10T14:44:16.860Z,0.80
2019-05-10T14:46:47.376Z,0.70
2019-05-10T14:49:17.849Z,0.60
2019-05-10T14:51:58.323Z,0.60
2019-05-10T14:54:20.349Z,0.70
2019-05-10T14:56:53.764Z,0.70
2019-05-10T14:59:22.939Z,0.70
2019-05-10T15:01:53.330Z,0.60
2019-05-10T15:04:46.669Z,0.70
2019-05-10T15:06:55.846Z,0.70
2019-05-10T15:09:26.314Z,0.70
2019-05-10T15:11:56.794Z,0.83
2019-05-10T15:14:27.214Z,0.70
2019-05-10T15:16:57.617Z,0.70
2019-05-10T15:19:31.213Z,0.80
2019-05-10T15:22:00.111Z,0.77
2019-05-10T15:24:30.534Z,0.70
2019-05-10T15:27:00.971Z,1.00
2019-05-10T15:29:31.378Z,0.70
2019-05-10T15:32:01.786Z,0.90
2019-05-10T15:34:32.270Z,0.90
2019-05-10T15:37:09.419Z,0.83
2019-05-10T15:39:34.810Z,0.90
2019-05-10T15:42:05.312Z,0.80
2019-05-10T15:44:35.795Z,0.90
2019-05-10T15:47:06.322Z,0.90
2019-05-10T15:49:36.728Z,0.90
2019-05-10T15:52:17.455Z,0.93
2019-05-10T15:54:44.729Z,0.90
2019-05-10T15:57:14.630Z,1.00
2019-05-10T15:59:43.442Z,1.07
2019-05-10T16:02:13.844Z,1.60
2019-05-10T16:04:44.333Z,0.93
2019-05-10T16:07:16.595Z,0.90
2019-05-10T16:09:49.994Z,0.80
2019-05-10T16:12:19.390Z,0.97
2019-05-10T16:14:49.833Z,1.10
2019-05-10T16:17:23.725Z,0.90
2019-05-10T16:19:59.451Z,0.97
2019-05-10T16:22:25.256Z,1.20
2019-05-10T16:25:00.684Z,0.90
2019-05-10T16:27:34.105Z,1.10
2019-05-10T16:30:01.965Z,1.53
2019-05-10T16:32:34.678Z,1.00
2019-05-10T16:35:12.364Z,1.10
2019-05-10T16:37:36.880Z,0.90
2019-05-10T16:40:07.643Z,1.10
2019-05-10T16:42:38.047Z,1.03
2019-05-10T16:45:08.548Z,0.87
2019-05-10T16:47:38.928Z,1.03
2019-05-10T16:50:10.461Z,1.10
2019-05-10T16:52:40.835Z,1.20
2019-05-10T16:55:11.347Z,0.87
2019-05-10T16:57:41.807Z,1.00
2019-05-10T17:00:13.415Z,1.10
2019-05-10T17:02:44.032Z,0.97
2019-05-10T17:05:15.492Z,1.00
2019-05-10T17:07:46.680Z,0.87
2019-05-10T17:10:17.182Z,1.10
2019-05-10T17:12:47.614Z,1.10
2019-05-10T17:15:18.224Z,1.00
2019-05-10T17:17:48.616Z,1.00
2019-05-10T17:20:19.023Z,1.23
2019-05-10T17:22:49.439Z,1.40
2019-05-10T17:25:22.510Z,1.00
2019-05-10T17:27:57.745Z,1.10
2019-05-10T17:30:27.900Z,1.13
2019-05-10T17:32:57.643Z,1.07
2019-05-10T17:35:28.245Z,1.37
2019-05-10T17:37:58.649Z,1.87
2019-05-10T17:40:29.060Z,1.10
2019-05-10T17:42:59.447Z,1.43
2019-05-10T17:45:34.878Z,1.50
2019-05-10T17:48:03.523Z,1.33
2019-05-10T17:50:34.069Z,0.97
2019-05-10T17:53:04.504Z,1.23
2019-05-10T17:55:34.918Z,1.10
2019-05-10T17:58:05.359Z,1.20
2019-05-10T18:00:35.804Z,1.60
2019-05-10T18:03:06.234Z,1.50
2019-05-10T18:05:41.278Z,1.30
2019-05-10T18:08:08.784Z,1.40
2019-05-10T18:10:39.360Z,1.17
2019-05-10T18:13:09.742Z,1.00
2019-05-10T18:15:40.194Z,1.00
2019-05-10T18:18:10.630Z,1.20
2019-05-10T18:20:44.281Z,1.00
2019-05-10T18:23:20.449Z,1.33
2019-05-10T18:25:45.349Z,1.30
2019-05-10T18:28:19.072Z,1.20
2019-05-10T18:30:47.947Z,1.20
2019-05-10T18:33:18.348Z,1.10
2019-05-10T18:35:52.699Z,1.23
2019-05-10T18:38:20.932Z,1.30
2019-05-10T18:40:51.355Z,1.20
2019-05-10T18:43:21.831Z,1.50
2019-05-10T18:45:52.334Z,1.30
2019-05-10T18:48:22.746Z,1.30
2019-05-10T18:50:53.265Z,1.40
2019-05-10T18:53:23.772Z,1.47
2019-05-10T18:55:54.314Z,1.80
2019-05-10T18:58:29.425Z,2.90
2019-05-10T19:01:00.596Z,1.90
2019-05-10T19:03:33.502Z,2.30
2019-05-10T19:06:03.952Z,1.90
2019-05-10T19:08:33.218Z,2.13
2019-05-10T19:11:04.376Z,4.27
2019-05-10T19:13:46.433Z,2.60
2019-05-10T19:16:07.550Z,2.83
2019-05-10T19:18:37.989Z,2.37
2019-05-10T19:21:08.430Z,2.10
2019-05-10T19:23:38.917Z,3.80
2019-05-10T19:26:09.418Z,1.70
2019-05-10T19:28:39.819Z,2.00
2019-05-10T19:31:10.190Z,1.87
2019-05-10T19:33:40.651Z,2.33
2019-05-10T19:36:13.024Z,2.97
2019-05-10T19:38:43.176Z,2.10
2019-05-10T19:41:13.980Z,3.80
2019-05-10T19:43:44.418Z,3.07
2019-05-10T19:46:14.860Z,3.30
2019-05-10T19:48:45.297Z,2.90
2019-05-10T19:51:15.829Z,2.93
2019-05-10T19:53:46.272Z,2.23
2019-05-10T19:56:16.724Z,3.60
2019-05-10T19:58:49.179Z,2.57
2019-05-10T20:01:19.278Z,2.43
2019-05-10T20:03:49.702Z,2.17
2019-05-10T20:06:20.099Z,2.53
2019-05-10T20:08:50.519Z,1.80
2019-05-10T20:11:21.021Z,4.10
2019-05-10T20:13:51.427Z,3.07
2019-05-10T20:16:21.859Z,2.10
2019-05-10T20:18:52.286Z,2.37
2019-05-10T20:21:22.709Z,2.27
2019-05-10T20:23:53.186Z,2.33
2019-05-10T20:26:23.607Z,1.93
2019-05-10T20:28:54.047Z,1.60
2019-05-10T20:31:24.509Z,2.03
2019-05-10T20:33:55.091Z,2.30
2019-05-10T20:36:25.598Z,2.40
2019-05-10T20:38:56.008Z,1.40
2019-05-10T20:41:26.401Z,2.10
2019-05-10T20:43:56.819Z,1.50
2019-05-10T20:46:27.450Z,1.53
2019-05-10T20:48:57.877Z,1.47
2019-05-10T20:51:28.363Z,1.40
2019-05-10T20:53:58.875Z,1.60
2019-05-10T20:56:29.320Z,1.70
2019-05-10T20:58:59.730Z,1.37
2019-05-10T21:01:42.072Z,1.60
2019-05-10T21:04:12.534Z,1.20
2019-05-10T21:06:42.989Z,1.60
2019-05-10T21:09:13.482Z,1.20
2019-05-10T21:11:43.860Z,1.40
2019-05-10T21:14:14.293Z,1.50
2019-05-10T21:16:44.687Z,1.40
2019-05-10T21:19:15.135Z,1.40
2019-05-10T21:21:45.576Z,1.50
2019-05-10T21:24:16.003Z,1.57
2019-05-10T21:26:46.410Z,1.60
2019-05-10T21:29:16.862Z,3.47
2019-05-10T21:31:47.257Z,1.60
2019-05-10T21:34:17.646Z,1.47
2019-05-10T21:36:48.051Z,1.10
2019-05-10T21:39:18.448Z,1.43
2019-05-10T21:41:48.860Z,1.20
2019-05-10T21:44:19.284Z,1.30
2019-05-10T21:46:53.371Z,2.53
2019-05-10T21:49:21.841Z,1.80
2019-05-10T21:51:52.197Z,1.63
2019-05-10T21:54:22.613Z,1.77
2019-05-10T21:56:52.993Z,3.00
2019-05-10T21:59:23.458Z,3.70
2019-05-10T22:01:54.150Z,3.27
2019-05-10T22:04:24.563Z,2.63
2019-05-10T22:06:54.927Z,2.37
2019-05-10T22:09:25.355Z,2.27
2019-05-10T22:11:59.189Z,2.43
2019-05-10T22:14:27.898Z,2.63
2019-05-10T22:16:58.281Z,2.53
2019-05-10T22:19:28.712Z,3.30
2019-05-10T22:21:59.077Z,2.80
2019-05-10T22:24:29.465Z,4.27
2019-05-10T22:26:59.901Z,2.60
2019-05-10T22:29:30.314Z,2.43
2019-05-10T22:32:00.774Z,2.53
2019-05-10T22:34:31.246Z,2.40
2019-05-10T22:37:01.621Z,2.33
2019-05-10T22:39:32.050Z,2.43
2019-05-10T22:42:02.455Z,2.83
2019-05-10T22:44:32.990Z,3.00
2019-05-10T22:47:03.405Z,2.30
2019-05-10T22:49:34.656Z,2.77
2019-05-10T22:52:05.097Z,3.90
2019-05-10T22:54:35.610Z,2.80
2019-05-10T22:57:06.053Z,2.90
2019-05-10T22:59:36.480Z,2.97
2019-05-10T23:02:06.959Z,2.40
2019-05-10T23:04:37.403Z,3.10
2019-05-10T23:07:07.814Z,2.30
2019-05-10T23:09:38.223Z,2.43
2019-05-10T23:12:08.679Z,2.43
2019-05-10T23:14:39.093Z,2.07
2019-05-10T23:17:09.627Z,1.97
2019-05-10T23:19:40.830Z,1.83
2019-05-10T23:22:11.235Z,1.80
2019-05-10T23:24:41.670Z,1.83
2019-05-10T23:27:12.182Z,1.60
2019-05-10T23:29:42.637Z,2.00
2019-05-10T23:32:13.091Z,1.60
2019-05-10T23:34:43.521Z,1.40
2019-05-10T23:37:14.350Z,1.57
2019-05-10T23:39:44.955Z,1.60
2019-05-10T23:42:15.435Z,1.63
2019-05-10T23:44:45.901Z,1.50
2019-05-10T23:47:16.341Z,1.50
2019-05-10T23:49:46.786Z,1.40
2019-05-10T23:52:17.244Z,1.40
2019-05-10T23:54:47.690Z,1.40
2019-05-10T23:57:18.176Z,1.30
2019-05-10T23:59:48.655Z,1.30
